Terminal Aerodrome Forecast
Issued by NWS

Home | Current Version | Previous Version | Text Only | Print | Product List | Glossary On
Versions: 1 2 3 4 5 6 7 8 9 10 11 12 13
527
FTUS43 KGRB 201211 RRA
TAFAUW
TAF
KAUW 201211Z 2012/2112 12006KT P6SM SCT060 BKN200 WS014/18035KT
     FM201600 13010G17KT P6SM SCT050 OVC100 WS020/19040KT
     FM202100 14012G18KT P6SM SCT025 OVC050 WS020/19040KT
     FM210000 18008KT 4SM SHRA OVC020 WS020/21055KT
     FM210500 24007KT 3SM -SHRA BR OVC016
     FM210800 27006KT 3SM BR BKN015=

USA.gov is the U.S. government's official web portal to all federal, state and local government web resources and services.